Time;durP1;ratioP1;P1;durP2;ratioP2;P2;SDS_P1;SDS_P2;PMS_P1;PMS_P2;Temp;Humidity;BMP_temperature;BMP_pressure;BME280_temperature;BME280_humidity;BME280_pressure;Samples;Min_cycle;Max_cycle;Signal;HPM_P1;HPM_P2
2021/04/23 00:02:28;;;;;;;13.77;5.15;;;;;;;4.48;100.00;102957.28;6169784;23;20416;-87
2021/04/23 00:04:53;;;;;;;16.58;4.45;;;;;;;4.49;100.00;102948.56;6169643;23;20550;-87
2021/04/23 00:07:19;;;;;;;17.85;5.57;;;;;;;4.36;100.00;102951.84;6144247;23;20053;-88
2021/04/23 00:09:44;;;;;;;15.00;4.68;;;;;;;4.33;100.00;102952.72;6168385;23;20008;-87
2021/04/23 00:12:15;;;;;;;16.20;5.38;;;;;;;4.31;100.00;102956.13;6163015;23;20093;-88
2021/04/23 00:14:45;;;;;;;17.08;5.45;;;;;;;4.29;100.00;102945.66;6165981;23;20052;-87
2021/04/23 00:17:11;;;;;;;14.23;4.57;;;;;;;4.15;100.00;102945.44;6166694;23;20002;-88
2021/04/23 00:19:38;;;;;;;18.70;5.57;;;;;;;4.28;100.00;102941.28;6166039;23;20017;-88
2021/04/23 00:22:05;;;;;;;14.32;5.90;;;;;;;4.00;100.00;102932.13;6165490;23;20005;-87
2021/04/23 00:24:31;;;;;;;21.38;5.22;;;;;;;3.87;100.00;102932.78;6164779;23;20005;-89
2021/04/23 00:27:03;;;;;;;20.52;6.57;;;;;;;3.96;100.00;102943.38;6166771;23;20442;-89
2021/04/23 00:29:39;;;;;;;9.88;4.90;;;;;;;3.86;100.00;102917.91;6165428;23;20013;-88
2021/04/23 00:32:12;;;;;;;16.25;5.10;;;;;;;3.84;100.00;102919.66;6165620;23;20446;-88
2021/04/23 00:34:38;;;;;;;11.82;5.10;;;;;;;3.87;100.00;102941.50;6165223;23;20065;-88
2021/04/23 00:37:12;;;;;;;15.80;5.07;;;;;;;3.93;100.00;102934.63;6174508;23;20001;-87
2021/04/23 00:39:37;;;;;;;16.35;6.22;;;;;;;3.98;100.00;102931.22;6175863;23;20068;-88
2021/04/23 00:42:09;;;;;;;18.00;6.05;;;;;;;3.78;100.00;102930.00;6166368;23;20044;-88
2021/04/23 00:44:35;;;;;;;13.82;5.30;;;;;;;3.85;100.00;102937.09;6165821;23;20009;-88
2021/04/23 00:47:01;;;;;;;12.85;5.47;;;;;;;3.59;100.00;102927.06;6178606;23;20006;-89
2021/04/23 00:49:27;;;;;;;15.73;6.25;;;;;;;3.46;100.00;102934.66;6180828;23;20002;-88
2021/04/23 00:51:59;;;;;;;19.60;6.03;;;;;;;3.61;100.00;102922.78;6180587;23;20009;-88
2021/04/23 00:54:26;;;;;;;15.13;5.65;;;;;;;3.73;100.00;102932.56;6180206;23;20029;-89
2021/04/23 00:56:55;;;;;;;15.38;5.47;;;;;;;3.87;100.00;102961.56;6163611;23;20432;-88
2021/04/23 00:59:25;;;;;;;20.30;5.78;;;;;;;3.58;100.00;102929.66;6155992;23;20006;-88
2021/04/23 01:02:25;;;;;;;;;;;;;;;;;;;;;
2021/04/23 01:04:53;;;;;;;29.05;6.97;;;;;;;3.60;100.00;102920.97;6166770;23;20032;-87
2021/04/23 01:07:21;;;;;;;16.67;6.05;;;;;;;3.59;100.00;102920.97;6177970;23;20369;-88
2021/04/23 01:09:49;;;;;;;17.50;6.10;;;;;;;3.54;100.00;102912.16;6177533;23;20008;-88
2021/04/23 01:12:17;;;;;;;23.63;5.80;;;;;;;3.60;100.00;102939.28;6178990;23;20040;-88
2021/04/23 01:14:43;;;;;;;14.10;6.22;;;;;;;3.60;100.00;102948.88;6170595;23;20321;-86
2021/04/23 01:17:09;;;;;;;21.02;6.40;;;;;;;3.55;100.00;102932.22;6162435;23;20009;-87
2021/04/23 01:19:34;;;;;;;18.75;6.45;;;;;;;3.47;100.00;102934.72;6163039;23;20010;-87
2021/04/23 01:22:00;;;;;;;21.73;7.65;;;;;;;3.60;100.00;102949.75;6164301;23;20005;-87
2021/04/23 01:24:26;;;;;;;16.63;6.13;;;;;;;3.54;100.00;102936.56;6163519;23;20002;-88
2021/04/23 01:26:55;;;;;;;20.98;6.65;;;;;;;3.63;100.00;102947.19;6163762;23;20062;-87
2021/04/23 01:29:23;;;;;;;19.42;6.10;;;;;;;3.30;100.00;102916.06;6165934;23;20009;-86
2021/04/23 01:31:51;;;;;;;19.85;5.65;;;;;;;3.31;100.00;102919.56;6166819;23;20044;-87
2021/04/23 01:34:36;;;;;;;20.35;6.55;;;;;;;3.26;100.00;102924.75;6177392;23;19993;-87
2021/04/23 01:37:03;;;;;;;18.98;6.25;;;;;;;3.32;100.00;102948.38;6163310;23;20080;-87
2021/04/23 01:39:31;;;;;;;15.63;6.82;;;;;;;3.33;100.00;102931.84;6162610;23;20017;-87
2021/04/23 01:42:00;;;;;;;22.35;6.05;;;;;;;3.29;100.00;102944.81;6162315;23;20009;-87
2021/04/23 01:44:27;;;;;;;16.05;6.22;;;;;;;3.18;100.00;102936.75;6162338;23;20012;-87
2021/04/23 01:46:55;;;;;;;16.10;6.20;;;;;;;3.01;100.00;102930.31;6164228;23;20002;-87
2021/04/23 01:49:22;;;;;;;16.85;6.65;;;;;;;2.90;100.00;102932.72;6164073;23;20006;-87
2021/04/23 01:51:54;;;;;;;17.35;8.07;;;;;;;2.92;100.00;102946.69;6164009;23;20009;-87
2021/04/23 01:54:22;;;;;;;21.42;7.82;;;;;;;2.93;100.00;102922.34;6164512;23;20328;-87
2021/04/23 01:56:48;;;;;;;16.80;5.85;;;;;;;3.02;100.00;102940.81;6162001;23;20017;-87
2021/04/23 01:59:14;;;;;;;22.00;6.15;;;;;;;3.09;100.00;102947.03;6163350;23;20016;-87
2021/04/23 02:01:41;;;;;;;15.52;6.07;;;;;;;2.87;100.00;102931.78;6162029;23;20033;-87
2021/04/23 02:04:09;;;;;;;14.65;5.82;;;;;;;2.86;100.00;102954.38;6163567;23;20005;-87
2021/04/23 02:06:35;;;;;;;16.23;5.97;;;;;;;2.59;100.00;102941.63;6161080;23;20001;-87
2021/04/23 02:09:02;;;;;;;16.30;7.47;;;;;;;2.77;100.00;102947.25;6161602;23;20002;-87
2021/04/23 02:11:28;;;;;;;17.80;7.82;;;;;;;2.91;100.00;102959.72;6161393;23;20009;-88
2021/04/23 02:13:55;;;;;;;15.90;6.32;;;;;;;2.85;100.00;102929.13;6161532;23;20009;-89
2021/04/23 02:16:21;;;;;;;16.40;6.40;;;;;;;2.89;100.00;102932.69;6160935;23;19998;-88
2021/04/23 02:18:53;;;;;;;12.30;6.45;;;;;;;2.82;100.00;102927.34;6161500;23;20518;-88
2021/04/23 02:21:21;;;;;;;16.65;5.93;;;;;;;2.97;100.00;102952.91;6161100;23;20028;-86
2021/04/23 02:23:51;;;;;;;16.30;5.53;;;;;;;2.89;100.00;102951.84;6136334;23;20709;-86
2021/04/23 02:26:18;;;;;;;17.70;6.13;;;;;;;3.02;100.00;102955.59;6139882;23;20003;-87
2021/04/23 02:28:44;;;;;;;16.10;6.57;;;;;;;2.83;100.00;102942.16;6165417;23;20006;-87
2021/04/23 02:31:20;;;;;;;15.10;6.55;;;;;;;2.68;100.00;102931.38;6163993;23;20006;-88
2021/04/23 02:33:51;;;;;;;20.35;6.82;;;;;;;2.83;100.00;102959.56;6164223;23;20005;-88
2021/04/23 02:36:17;;;;;;;17.08;6.60;;;;;;;2.68;100.00;102946.19;6141142;23;20013;-89
2021/04/23 02:38:43;;;;;;;15.90;6.03;;;;;;;2.69;100.00;102967.09;6164548;23;20068;-89
2021/04/23 02:41:11;;;;;;;20.05;6.30;;;;;;;2.73;100.00;102958.47;6162687;23;20013;-87
2021/04/23 02:43:41;;;;;;;25.30;7.38;;;;;;;2.81;100.00;102969.97;6164344;23;20009;-88
2021/04/23 02:46:09;;;;;;;13.30;6.15;;;;;;;2.85;100.00;102956.13;6163011;23;20052;-87
2021/04/23 02:48:37;;;;;;;16.83;7.65;;;;;;;2.73;100.00;102941.94;6163669;23;20014;-86
2021/04/23 02:51:09;;;;;;;20.88;6.45;;;;;;;2.69;100.00;102961.88;6164300;23;20002;-88
2021/04/23 02:53:35;;;;;;;19.02;7.00;;;;;;;2.74;100.00;102965.47;6165691;23;20006;-87
2021/04/23 02:56:05;;;;;;;17.13;6.93;;;;;;;2.80;100.00;102968.19;6164436;23;19998;-88
2021/04/23 02:58:30;;;;;;;11.05;6.53;;;;;;;2.52;100.00;102955.41;6164374;23;20005;-88
2021/04/23 03:01:00;;;;;;;18.83;6.57;;;;;;;2.60;100.00;102985.16;6164074;23;20009;-88
2021/04/23 03:03:27;;;;;;;17.50;5.80;;;;;;;2.63;100.00;102981.75;6165647;23;20009;-88
2021/04/23 03:05:54;;;;;;;22.17;6.28;;;;;;;2.46;100.00;102963.97;6166734;23;20001;-85
2021/04/23 03:08:20;;;;;;;25.10;6.85;;;;;;;2.54;100.00;102969.34;6165783;23;20753;-85
2021/04/23 03:10:55;;;;;;;21.70;6.80;;;;;;;2.54;100.00;102978.06;6164689;23;20008;-85
2021/04/23 03:13:24;;;;;;;15.55;6.75;;;;;;;2.62;100.00;102977.38;6165043;23;20021;-85
2021/04/23 03:15:52;;;;;;;21.98;6.88;;;;;;;2.59;100.00;102984.28;6163359;23;20027;-85
2021/04/23 03:18:24;;;;;;;17.52;6.28;;;;;;;2.53;100.00;102976.31;6162866;23;20050;-85
2021/04/23 03:20:53;;;;;;;16.73;7.07;;;;;;;2.55;100.00;102984.16;6162505;23;20052;-85
2021/04/23 03:23:19;;;;;;;21.15;8.60;;;;;;;2.55;100.00;102981.56;6164514;23;20013;-86
2021/04/23 03:25:44;;;;;;;27.77;8.25;;;;;;;2.59;100.00;102984.28;6164464;23;20602;-85
2021/04/23 03:28:10;;;;;;;28.55;8.02;;;;;;;2.62;100.00;102983.47;6166785;23;20005;-85
2021/04/23 03:30:39;;;;;;;23.10;8.93;;;;;;;2.66;100.00;102993.16;6165681;23;20010;-85
2021/04/23 03:33:05;;;;;;;22.50;7.68;;;;;;;2.61;100.00;102976.50;6166465;23;20057;-87
2021/04/23 03:35:31;;;;;;;19.42;7.45;;;;;;;2.58;100.00;102992.09;6165847;23;20005;-88
2021/04/23 03:37:57;;;;;;;22.10;7.80;;;;;;;2.70;100.00;102999.31;6163277;23;20055;-87
2021/04/23 03:40:26;;;;;;;23.95;8.65;;;;;;;2.68;100.00;102999.28;6163772;23;19997;-88
2021/04/23 03:42:52;;;;;;;22.63;9.02;;;;;;;2.67;100.00;102994.03;6163765;23;20013;-86
2021/04/23 03:45:20;;;;;;;24.70;9.32;;;;;;;2.56;100.00;102983.31;6141621;23;20001;-87
2021/04/23 03:47:46;;;;;;;23.88;9.02;;;;;;;2.70;100.00;102997.56;6168083;23;20082;-87
2021/04/23 03:50:15;;;;;;;22.75;8.93;;;;;;;2.69;100.00;103013.22;6165638;23;20009;-85
2021/04/23 03:52:41;;;;;;;26.27;8.75;;;;;;;2.71;100.00;103004.56;6166484;23;20005;-85
2021/04/23 03:55:11;;;;;;;19.45;8.85;;;;;;;2.79;100.00;103000.38;6164539;23;20001;-86
2021/04/23 03:57:37;;;;;;;30.38;10.75;;;;;;;2.71;100.00;103001.06;6157652;23;20340;-87
2021/04/23 04:00:07;;;;;;;25.42;9.18;;;;;;;2.73;100.00;103009.81;6164406;23;20005;-87
2021/04/23 04:02:32;;;;;;;21.95;8.77;;;;;;;2.65;100.00;102977.44;6164964;23;20025;-86
2021/04/23 04:04:57;;;;;;;26.50;8.98;;;;;;;2.59;100.00;103001.66;6164240;23;20005;-86
2021/04/23 04:07:23;;;;;;;27.30;9.82;;;;;;;2.58;100.00;103006.00;6164939;23;20002;-88
2021/04/23 04:09:50;;;;;;;24.55;9.13;;;;;;;2.58;100.00;103000.78;6164059;23;20016;-87
2021/04/23 04:12:15;;;;;;;23.63;8.35;;;;;;;2.40;100.00;102987.31;6164408;23;20104;-88
2021/04/23 04:14:40;;;;;;;28.48;9.35;;;;;;;2.58;100.00;103005.13;6164771;23;20014;-88
2021/04/23 04:17:06;;;;;;;21.38;8.38;;;;;;;2.57;100.00;103009.47;6169370;23;19997;-88
2021/04/23 04:19:32;;;;;;;25.23;8.23;;;;;;;2.52;100.00;103010.22;6166390;23;20060;-87
2021/04/23 04:21:58;;;;;;;28.27;9.00;;;;;;;2.62;100.00;103006.97;6166115;23;20006;-87
2021/04/23 04:24:24;;;;;;;26.35;9.55;;;;;;;2.62;100.00;103016.53;6165520;23;20660;-88
2021/04/23 04:26:49;;;;;;;23.00;7.60;;;;;;;2.56;100.00;103014.63;6164905;23;20052;-88
2021/04/23 04:29:15;;;;;;;21.35;7.63;;;;;;;2.50;100.00;103025.81;6170025;23;19989;-87
2021/04/23 04:31:41;;;;;;;22.42;9.40;;;;;;;2.46;100.00;103012.66;6178790;23;20009;-86
2021/04/23 04:34:06;;;;;;;20.88;8.13;;;;;;;2.50;100.00;103020.59;6181215;23;20049;-88
2021/04/23 04:36:31;;;;;;;14.77;7.57;;;;;;;2.46;100.00;103016.19;6164472;23;20001;-87
2021/04/23 04:38:57;;;;;;;21.95;7.60;;;;;;;2.57;100.00;103025.16;6164350;23;19998;-88
2021/04/23 04:41:23;;;;;;;17.77;8.40;;;;;;;2.67;100.00;103012.31;6182738;23;20016;-87
2021/04/23 04:43:48;;;;;;;20.00;7.90;;;;;;;2.76;100.00;103028.16;6182109;23;20013;-87
2021/04/23 04:46:14;;;;;;;20.00;7.80;;;;;;;2.65;100.00;103017.47;6164657;23;20598;-87
2021/04/23 04:48:39;;;;;;;23.25;7.57;;;;;;;2.58;100.00;103015.59;6163778;23;20005;-88
2021/04/23 04:51:06;;;;;;;17.17;7.47;;;;;;;2.63;100.00;103044.41;6133208;23;20013;-87
2021/04/23 04:53:48;;;;;;;18.85;6.85;;;;;;;2.57;100.00;103035.59;6110632;23;20029;-88
2021/04/23 04:56:15;;;;;;;20.52;8.25;;;;;;;2.45;100.00;103026.56;6110015;23;20030;-86
2021/04/23 04:58:42;;;;;;;17.60;6.63;;;;;;;2.70;100.00;103049.78;6135243;23;20013;-86
2021/04/23 05:01:10;;;;;;;18.98;7.72;;;;;;;2.79;100.00;103055.22;6133628;23;20060;-86
2021/04/23 05:03:53;;;;;;;18.17;6.68;;;;;;;2.77;100.00;103032.56;6134653;23;20002;-86
2021/04/23 05:06:19;;;;;;;19.83;6.93;;;;;;;2.98;100.00;103050.44;6109732;23;20061;-86
2021/04/23 05:09:04;;;;;;;20.17;6.60;;;;;;;2.80;100.00;103035.22;6109556;23;20143;-86
2021/04/23 05:11:30;;;;;;;16.60;6.45;;;;;;;2.89;100.00;103052.84;6132713;23;20043;-85
2021/04/23 05:13:59;;;;;;;19.85;6.32;;;;;;;2.98;100.00;103056.53;6109145;23;20065;-87
2021/04/23 05:16:25;;;;;;;17.95;6.40;;;;;;;3.10;100.00;103054.19;6108559;23;20085;-86
2021/04/23 05:18:55;;;;;;;17.42;5.35;;;;;;;3.08;100.00;103055.88;6108429;23;20014;-86
2021/04/23 05:21:31;;;;;;;24.05;6.25;;;;;;;3.25;100.00;103051.00;6116307;23;20005;-86
2021/04/23 05:23:56;;;;;;;14.52;5.40;;;;;;;3.37;100.00;103058.25;6158689;23;20460;-85
2021/04/23 05:26:24;;;;;;;20.17;6.00;;;;;;;3.31;100.00;103032.88;6159664;23;20081;-87
2021/04/23 05:28:49;;;;;;;14.98;5.00;;;;;;;3.47;100.00;103036.66;6161918;23;19998;-87
2021/04/23 05:31:15;;;;;;;15.73;4.80;;;;;;;3.47;100.00;103034.06;6160690;23;20716;-88
2021/04/23 05:33:40;;;;;;;14.48;5.70;;;;;;;3.74;100.00;103054.63;6160780;23;20084;-86
2021/04/23 05:36:06;;;;;;;20.75;6.60;;;;;;;3.70;100.00;103044.94;6156381;23;20006;-87
2021/04/23 05:38:31;;;;;;;23.65;5.75;;;;;;;3.98;100.00;103058.56;6154972;23;20001;-87
2021/04/23 05:41:08;;;;;;;20.08;4.85;;;;;;;4.03;100.00;103068.25;6158552;23;20009;-88
2021/04/23 05:43:33;;;;;;;18.10;5.00;;;;;;;4.07;100.00;103067.44;6163013;23;20428;-87
2021/04/23 05:45:59;;;;;;;14.73;4.90;;;;;;;4.15;100.00;103071.06;6158254;23;20068;-87
2021/04/23 05:48:24;;;;;;;18.27;5.35;;;;;;;4.22;100.00;103077.31;6158381;23;20451;-87
2021/04/23 05:50:50;;;;;;;10.43;4.47;;;;;;;4.03;100.00;103047.31;6158513;23;20057;-87
2021/04/23 05:53:28;;;;;;;23.92;5.65;;;;;;;4.20;100.00;103047.59;6160030;23;20081;-87
2021/04/23 05:55:54;;;;;;;23.52;5.25;;;;;;;4.44;100.00;103069.81;6156972;23;20010;-86
2021/04/23 05:58:19;;;;;;;16.40;4.97;;;;;;;4.41;100.00;103055.78;6155770;23;20029;-87
2021/04/23 06:00:44;;;;;;;14.35;5.00;;;;;;;4.62;100.00;103081.47;6155396;23;20060;-86
2021/04/23 06:03:11;;;;;;;22.52;5.13;;;;;;;4.73;100.00;103083.38;6156777;23;20060;-87
2021/04/23 06:05:49;;;;;;;15.13;5.03;;;;;;;4.71;100.00;103082.47;6159163;23;20494;-88
2021/04/23 06:08:15;;;;;;;19.90;4.88;;;;;;;4.74;100.00;103088.63;6157579;23;20706;-86
2021/04/23 06:10:49;;;;;;;14.32;4.82;;;;;;;4.76;100.00;103080.78;6153121;23;20052;-87
2021/04/23 06:13:15;;;;;;;20.50;5.72;;;;;;;4.88;100.00;103081.88;6158007;23;20049;-86
2021/04/23 06:15:42;;;;;;;17.98;4.40;;;;;;;5.00;100.00;103098.63;6159551;23;19997;-83
2021/04/23 06:18:08;;;;;;;13.90;5.55;;;;;;;5.10;100.00;103097.91;6162237;23;20006;-86
2021/04/23 06:20:41;;;;;;;14.88;5.65;;;;;;;5.08;100.00;103078.66;6162067;23;20009;-86
2021/04/23 06:23:07;;;;;;;20.73;4.70;;;;;;;5.24;100.00;103091.09;6161627;23;20088;-86
2021/04/23 06:25:38;;;;;;;18.40;5.30;;;;;;;5.21;100.00;103088.44;6158680;23;19997;-86
2021/04/23 06:28:18;;;;;;;15.35;4.90;;;;;;;5.27;100.00;103093.78;6156925;23;19997;-86
2021/04/23 06:30:43;;;;;;;17.17;4.75;;;;;;;5.55;100.00;103120.34;6155783;23;20439;-85
2021/04/23 06:33:16;;;;;;;15.38;6.10;;;;;;;5.63;100.00;103103.84;6157898;23;20014;-85
2021/04/23 06:35:42;;;;;;;17.52;4.90;;;;;;;5.72;100.00;103111.84;6161558;23;20025;-84
2021/04/23 06:38:10;;;;;;;15.35;4.88;;;;;;;5.63;100.00;103110.84;6159337;23;20356;-85
2021/04/23 06:40:42;;;;;;;25.40;6.78;;;;;;;5.85;100.00;103123.34;6163181;23;20009;-87
2021/04/23 06:43:11;;;;;;;17.50;5.60;;;;;;;5.74;100.00;103092.59;6162960;23;20077;-86
2021/04/23 06:45:50;;;;;;;21.02;5.55;;;;;;;5.76;100.00;103090.88;6164599;23;20020;-85
2021/04/23 06:48:17;;;;;;;19.88;5.22;;;;;;;5.96;100.00;103103.38;6167418;23;20424;-84
2021/04/23 06:50:43;;;;;;;13.40;5.07;;;;;;;5.96;100.00;103094.63;6163845;23;20001;-84
2021/04/23 06:53:08;;;;;;;15.23;5.55;;;;;;;6.20;100.00;103115.00;6162579;23;20020;-84
2021/04/23 06:55:39;;;;;;;12.98;5.38;;;;;;;6.26;100.00;103114.19;6160570;23;20513;-85
2021/04/23 06:58:20;;;;;;;18.73;5.30;;;;;;;6.30;100.00;103092.34;6154044;23;20044;-86
2021/04/23 07:00:47;;;;;;;17.35;5.78;;;;;;;6.49;100.00;103081.13;6156414;23;20009;-86
2021/04/23 07:03:18;;;;;;;14.80;4.00;;;;;;;6.55;100.00;103093.44;6154628;23;20012;-86
2021/04/23 07:05:48;;;;;;;18.17;6.25;;;;;;;6.82;100.00;103084.88;6155913;23;20016;-87
2021/04/23 07:08:13;;;;;;;16.10;5.50;;;;;;;7.00;100.00;103101.66;6158100;23;19997;-82
2021/04/23 07:10:39;;;;;;;13.43;4.10;;;;;;;7.19;100.00;103113.16;6154836;23;20017;-86
2021/04/23 07:13:05;;;;;;;17.13;4.47;;;;;;;6.99;100.00;103114.78;6157771;23;20013;-86
2021/04/23 07:15:33;;;;;;;22.90;3.92;;;;;;;7.11;100.00;103121.88;6160723;23;20032;-85
2021/04/23 07:18:01;;;;;;;18.15;4.00;;;;;;;7.34;100.00;103130.78;6161360;23;19998;-86
2021/04/23 07:20:50;;;;;;;14.43;4.05;;;;;;;7.38;100.00;103100.09;6160588;23;20001;-89
2021/04/23 07:23:15;;;;;;;17.15;3.65;;;;;;;7.28;100.00;103101.81;6158505;23;20088;-86
2021/04/23 07:25:44;;;;;;;10.27;3.78;;;;;;;7.26;100.00;103095.66;6160101;23;20005;-87
2021/04/23 07:28:14;;;;;;;9.82;3.47;;;;;;;7.53;100.00;103121.25;6163935;23;20006;-86
2021/04/23 07:30:43;;;;;;;15.15;4.68;;;;;;;7.58;100.00;103115.97;6161949;23;20070;-88
2021/04/23 07:33:12;;;;;;;20.27;4.40;;;;;;;7.60;100.00;103120.38;6174340;23;20002;-86
2021/04/23 07:35:44;;;;;;;14.98;4.50;;;;;;;7.65;100.00;103099.34;6165696;23;20011;-87
2021/04/23 07:38:41;;;;;;;21.85;4.20;;;;;;;7.82;100.00;103109.91;6167938;23;20080;-84
2021/04/23 07:41:10;;;;;;;15.25;4.65;;;;;;;7.87;100.00;103093.25;6176184;23;20025;-86
2021/04/23 07:43:36;;;;;;;13.73;4.50;;;;;;;8.00;100.00;103089.78;6135685;23;20009;-86
2021/04/23 07:46:02;;;;;;;15.52;4.53;;;;;;;8.00;100.00;103091.53;6153440;23;20013;-82
2021/04/23 07:48:28;;;;;;;14.00;4.03;;;;;;;8.23;100.00;103099.47;6153729;23;20014;-81
2021/04/23 07:50:55;;;;;;;14.18;5.35;;;;;;;8.40;100.00;103110.94;6156152;23;20733;-83
2021/04/23 07:53:20;;;;;;;14.13;4.68;;;;;;;8.49;100.00;103107.44;6160059;23;20069;-85
2021/04/23 07:55:46;;;;;;;16.35;4.45;;;;;;;8.36;100.00;103095.09;6161320;23;20017;-86
2021/04/23 07:58:11;;;;;;;15.07;4.43;;;;;;;8.22;100.00;103103.00;6159878;23;20044;-85
2021/04/23 08:00:37;;;;;;;21.52;6.18;;;;;;;8.40;100.00;103092.50;6157622;23;20005;-86
2021/04/23 08:03:02;;;;;;;17.73;5.30;;;;;;;8.48;100.00;103108.31;6158284;23;20612;-86
2021/04/23 08:05:28;;;;;;;19.00;5.07;;;;;;;8.56;100.00;103112.72;6156232;23;20446;-86
2021/04/23 08:07:53;;;;;;;19.17;4.95;;;;;;;8.64;100.00;103090.75;6155993;23;20001;-86
2021/04/23 08:10:20;;;;;;;21.73;4.72;;;;;;;8.78;100.00;103105.66;6159727;23;20069;-86
2021/04/23 08:12:47;;;;;;;18.25;4.90;;;;;;;8.90;100.00;103103.91;6160080;23;20045;-87
2021/04/23 08:15:14;;;;;;;17.35;4.38;;;;;;;8.81;100.00;103099.53;6159185;23;20005;-87
2021/04/23 08:17:40;;;;;;;14.05;4.38;;;;;;;8.97;100.00;103095.97;6157026;23;20084;-87
2021/04/23 08:20:07;;;;;;;14.38;4.38;;;;;;;9.12;100.00;103096.81;6156492;23;20016;-87
2021/04/23 08:22:34;;;;;;;15.32;4.70;;;;;;;9.05;100.00;103078.38;6158564;23;20001;-87
2021/04/23 08:24:59;;;;;;;13.10;4.65;;;;;;;8.94;100.00;103096.00;6157815;23;20622;-87
2021/04/23 08:27:25;;;;;;;12.90;3.53;;;;;;;8.92;100.00;103092.47;6157778;23;20073;-86
2021/04/23 08:29:53;;;;;;;11.82;3.97;;;;;;;9.11;100.00;103097.72;6163081;23;20773;-87
2021/04/23 08:32:18;;;;;;;27.63;4.90;;;;;;;9.18;100.00;103081.84;6159746;23;20005;-86
2021/04/23 08:34:43;;;;;;;14.25;4.30;;;;;;;9.34;100.00;103070.38;6160428;23;20016;-86
2021/04/23 08:37:09;;;;;;;19.90;4.10;;;;;;;9.29;100.00;103066.00;6165860;23;20399;-87
2021/04/23 08:39:36;;;;;;;11.93;4.03;;;;;;;9.63;100.00;103089.59;6164471;23;20056;-87
2021/04/23 08:42:02;;;;;;;9.00;3.67;;;;;;;9.49;100.00;103093.19;6158844;23;20001;-86
2021/04/23 08:44:27;;;;;;;20.55;4.20;;;;;;;9.65;100.00;103096.63;6164184;23;20009;-86
2021/04/23 08:46:53;;;;;;;14.95;3.53;;;;;;;9.72;100.00;103073.72;6159355;23;20016;-87
2021/04/23 08:49:21;;;;;;;15.27;4.55;;;;;;;9.81;100.00;103092.16;6160610;23;20013;-87
2021/04/23 08:51:46;;;;;;;14.88;3.72;;;;;;;9.84;100.00;103085.09;6161705;23;20020;-85
2021/04/23 08:54:12;;;;;;;13.25;4.07;;;;;;;9.99;100.00;103086.78;6159222;23;20017;-85
2021/04/23 08:56:38;;;;;;;17.77;4.00;;;;;;;10.09;100.00;103083.19;6163015;23;20005;-85
2021/04/23 08:59:03;;;;;;;9.75;4.18;;;;;;;10.29;100.00;103093.66;6156556;23;20020;-85
2021/04/23 09:01:29;;;;;;;16.15;4.10;;;;;;;10.41;100.00;103091.78;6157237;23;20009;-85
2021/04/23 09:03:54;;;;;;;15.93;4.18;;;;;;;10.38;100.00;103087.38;6156158;23;20005;-85
2021/04/23 09:06:25;;;;;;;17.13;4.00;;;;;;;10.28;100.00;103081.28;6156633;23;20008;-86
2021/04/23 09:08:50;;;;;;;15.45;4.20;;;;;;;10.38;100.00;103088.25;6160148;23;20005;-86
2021/04/23 09:11:17;;;;;;;14.17;3.87;;;;;;;10.53;100.00;103076.69;6154743;23;20139;-85
2021/04/23 09:13:52;;;;;;;10.15;4.35;;;;;;;10.02;100.00;103076.16;6156131;23;20233;-86
2021/04/23 09:16:23;;;;;;;13.57;4.53;;;;;;;10.48;100.00;103085.56;6159351;23;20033;-86
2021/04/23 09:18:48;;;;;;;15.73;4.70;;;;;;;10.44;100.00;103062.66;6160101;23;20012;-87
2021/04/23 09:21:15;;;;;;;16.30;4.90;;;;;;;10.74;100.00;103075.59;6161521;23;20001;-86
2021/04/23 09:23:53;;;;;;;19.13;5.15;;;;;;;11.01;100.00;103085.06;6158402;23;20009;-87
2021/04/23 09:26:38;;;;;;;18.92;5.68;;;;;;;10.34;100.00;103073.34;6158879;23;20409;-86
2021/04/23 09:29:20;;;;;;;23.40;5.90;;;;;;;10.83;100.00;103096.69;6157518;23;20004;-86
2021/04/23 09:31:45;;;;;;;17.60;5.03;;;;;;;11.02;100.00;103092.09;6157643;23;20352;-86
2021/04/23 09:34:10;;;;;;;16.27;6.00;;;;;;;10.80;100.00;103087.94;6157873;23;20001;-86
2021/04/23 09:36:45;;;;;;;20.05;4.70;;;;;;;11.08;100.00;103092.03;6157211;23;20041;-86
2021/04/23 09:39:14;;;;;;;19.90;4.93;;;;;;;11.22;100.00;103091.00;6156687;23;20423;-84
2021/04/23 09:41:41;;;;;;;18.83;5.80;;;;;;;11.60;100.00;103080.81;6159750;23;20662;-85
2021/04/23 09:44:43;;;;;;;13.43;4.90;;;;;;;11.89;100.00;103082.22;6158596;23;20086;-86
2021/04/23 09:47:14;;;;;;;21.02;5.22;;;;;;;12.19;100.00;103089.69;6065595;23;20017;-85
2021/04/23 09:49:41;;;;;;;32.75;8.85;;;;;;;12.39;100.00;103083.22;6064802;23;20007;-86
2021/04/23 09:52:09;;;;;;;18.33;4.80;;;;;;;12.48;100.00;103083.06;6042722;23;20098;-86
2021/04/23 09:54:35;;;;;;;17.88;5.22;;;;;;;12.65;100.00;103086.31;6042138;23;20747;-86
2021/04/23 09:57:10;;;;;;;13.93;4.88;;;;;;;13.02;100.00;103082.13;6043049;23;20037;-86
2021/04/23 09:59:37;;;;;;;13.63;4.80;;;;;;;12.88;100.00;103080.59;6065290;23;20015;-86
2021/04/23 10:02:05;;;;;;;14.68;5.40;;;;;;;13.03;100.00;103090.03;6041649;23;20010;-86
2021/04/23 10:04:32;;;;;;;18.77;5.18;;;;;;;13.51;100.00;103083.81;6042283;23;20070;-86
2021/04/23 10:07:11;;;;;;;15.48;5.15;;;;;;;12.76;100.00;103078.16;6044997;23;20018;-85
2021/04/23 10:09:47;;;;;;;25.38;5.65;;;;;;;13.11;100.00;103074.84;6074707;23;20050;-85
2021/04/23 10:12:28;;;;;;;20.10;5.13;;;;;;;13.16;100.00;103099.53;6072097;23;20031;-85
2021/04/23 10:15:06;;;;;;;12.73;4.53;;;;;;;13.70;100.00;103094.03;6045229;23;20015;-85
2021/04/23 10:17:31;;;;;;;13.15;4.68;;;;;;;13.74;100.00;103074.41;6043824;23;20105;-86
2021/04/23 10:19:58;;;;;;;20.33;5.65;;;;;;;13.58;100.00;103074.81;6068527;23;20102;-86
2021/04/23 10:22:23;;;;;;;15.63;4.90;;;;;;;14.07;100.00;103085.22;6156908;23;20073;-86
2021/04/23 10:24:51;;;;;;;15.85;3.75;;;;;;;14.55;91.00;103084.94;6154256;23;20495;-86
2021/04/23 10:27:18;;;;;;;11.80;4.47;;;;;;;14.46;85.59;103082.50;6153506;23;20010;-86
2021/04/23 10:29:46;;;;;;;19.20;4.53;;;;;;;14.73;86.45;103087.13;6155571;23;20016;-85
2021/04/23 10:32:12;;;;;;;10.70;4.03;;;;;;;13.36;89.67;103079.72;6156098;23;20025;-86
2021/04/23 10:34:38;;;;;;;14.38;4.28;;;;;;;14.99;86.28;103074.91;6154511;23;20009;-86
2021/04/23 10:37:04;;;;;;;19.25;4.75;;;;;;;16.18;76.31;103067.81;6157472;23;20004;-87
2021/04/23 10:39:34;;;;;;;19.35;4.55;;;;;;;17.02;69.54;103067.63;6154978;23;20009;-86
2021/04/23 10:42:01;;;;;;;19.27;4.90;;;;;;;17.55;56.39;103062.03;6155037;23;20100;-86
2021/04/23 10:44:49;;;;;;;15.82;3.90;;;;;;;17.29;57.94;103079.06;6156183;23;20455;-86
2021/04/23 10:47:35;;;;;;;15.02;4.70;;;;;;;18.87;49.52;103074.44;6156015;23;20029;-85
2021/04/23 10:50:20;;;;;;;14.13;3.80;;;;;;;17.99;48.51;103070.16;6154149;23;20006;-86
2021/04/23 10:53:08;;;;;;;11.05;4.03;;;;;;;18.97;45.75;103061.50;6157001;23;20515;-86
2021/04/23 10:55:38;;;;;;;11.32;3.60;;;;;;;19.89;41.96;103063.50;6153395;23;20016;-85
2021/04/23 10:58:03;;;;;;;9.57;3.55;;;;;;;19.69;41.74;103060.91;6153021;23;20031;-86
2021/04/23 11:00:49;;;;;;;15.23;5.25;;;;;;;18.85;42.79;103070.97;6155241;23;20424;-86
2021/04/23 11:03:20;;;;;;;16.02;4.57;;;;;;;19.54;40.99;103070.50;6155377;23;20080;-86
2021/04/23 11:05:51;;;;;;;19.60;4.93;;;;;;;19.94;40.65;103046.31;6157444;23;20557;-86
2021/04/23 11:08:17;;;;;;;17.45;4.15;;;;;;;18.61;42.94;103059.47;6158296;23;20088;-86
2021/04/23 11:11:01;;;;;;;9.70;3.88;;;;;;;19.20;41.47;103054.25;6157295;23;20009;-84
2021/04/23 11:13:28;;;;;;;10.02;4.35;;;;;;;19.09;41.10;103035.97;6159278;23;20076;-86
2021/04/23 11:16:18;;;;;;;15.98;4.88;;;;;;;18.81;41.57;103052.41;6157916;23;20675;-84
2021/04/23 11:18:51;;;;;;;10.27;4.25;;;;;;;20.31;39.49;103048.88;6157625;23;20002;-85
2021/04/23 11:21:32;;;;;;;10.50;4.05;;;;;;;22.05;35.94;103043.94;6156284;23;20012;-85
2021/04/23 11:24:21;;;;;;;13.13;4.20;;;;;;;22.69;34.10;103047.31;6164075;23;20016;-84
2021/04/23 11:27:04;;;;;;;12.88;4.53;;;;;;;22.36;34.41;103047.53;6160211;23;20479;-85